Time;durP1;ratioP1;P1;durP2;ratioP2;P2;SDS_P1;SDS_P2;PMS_P1;PMS_P2;Temp;Humidity;BMP_temperature;BMP_pressure;BME280_temperature;BME280_humidity;BME280_pressure;Samples;Min_cycle;Max_cycle;Signal;HPM_P1;HPM_P2
2021/04/13 00:01:25;;;;;;;0.43;0.43;;;4.20;99.90;;;;;;4445626;32;20064;-76
2021/04/13 00:03:55;;;;;;;0.30;0.30;;;4.30;99.90;;;;;;4434509;32;20501;-75
2021/04/13 00:06:25;;;;;;;0.60;0.60;;;4.30;99.90;;;;;;4446971;32;20057;-76
2021/04/13 00:08:58;;;;;;;0.40;0.40;;;4.30;99.90;;;;;;4446275;32;20074;-76
2021/04/13 00:11:25;;;;;;;0.35;0.35;;;4.30;99.90;;;;;;4445246;32;20065;-75
2021/04/13 00:13:54;;;;;;;0.30;0.30;;;4.40;99.90;;;;;;4445259;32;20522;-76
2021/04/13 00:16:23;;;;;;;0.30;0.30;;;4.40;99.90;;;;;;4444939;32;20235;-75
2021/04/13 00:18:50;;;;;;;0.35;0.35;;;4.20;99.90;;;;;;4444739;32;20069;-76
2021/04/13 00:21:38;;;;;;;0.40;0.40;;;4.20;99.90;;;;;;4445142;32;20490;-76
2021/04/13 00:24:11;;;;;;;0.20;0.20;;;4.20;99.90;;;;;;4432943;32;20065;-76
2021/04/13 00:26:37;;;;;;;0.45;0.45;;;4.20;99.90;;;;;;4444612;32;20071;-76
2021/04/13 00:29:11;;;;;;;0.60;0.60;;;4.20;99.90;;;;;;4444993;32;20519;-76
2021/04/13 00:31:42;;;;;;;0.30;0.30;;;4.10;99.90;;;;;;4436075;32;20462;-76
2021/04/13 00:34:11;;;;;;;0.33;0.33;;;4.10;99.90;;;;;;4428793;32;20065;-76
2021/04/13 00:36:36;;;;;;;0.30;0.30;;;4.20;99.90;;;;;;4429503;32;20183;-76
2021/04/13 00:39:16;;;;;;;0.30;0.30;;;4.10;99.90;;;;;;4429037;32;20062;-76
2021/04/13 00:41:44;;;;;;;0.50;0.50;;;4.00;99.90;;;;;;4430591;32;20061;-76
2021/04/13 00:44:12;;;;;;;0.37;0.37;;;4.00;99.90;;;;;;4431294;32;20049;-75
2021/04/13 00:46:46;;;;;;;0.55;0.55;;;4.00;99.90;;;;;;4429295;32;20489;-76
2021/04/13 00:49:15;;;;;;;1.10;0.98;;;4.10;99.90;;;;;;4428849;32;20077;-76
2021/04/13 00:51:45;;;;;;;1.65;0.70;;;4.10;99.90;;;;;;4429321;32;20404;-74
2021/04/13 00:54:27;;;;;;;0.40;0.40;;;3.90;99.90;;;;;;4427934;32;20408;-76
2021/04/13 00:56:54;;;;;;;0.40;0.40;;;4.00;99.90;;;;;;4429407;32;20065;-76
2021/04/13 00:59:22;;;;;;;0.50;0.50;;;4.00;99.90;;;;;;4427686;32;20584;-76
2021/04/13 01:02:00;;;;;;;0.40;0.40;;;3.90;99.90;;;;;;4428805;32;20086;-76
2021/04/13 01:04:35;;;;;;;0.30;0.30;;;4.00;99.90;;;;;;4427998;32;20066;-76
2021/04/13 01:07:09;;;;;;;2.45;1.35;;;3.80;99.90;;;;;;4428518;32;20526;-76
2021/04/13 01:09:44;;;;;;;0.57;0.57;;;3.80;99.90;;;;;;4429235;32;20065;-76
2021/04/13 01:12:20;;;;;;;0.35;0.35;;;3.80;99.90;;;;;;4413610;32;20526;-76
2021/04/13 01:14:47;;;;;;;0.50;0.50;;;3.80;99.90;;;;;;4413522;32;20070;-76
2021/04/13 01:17:13;;;;;;;0.30;0.30;;;3.70;99.90;;;;;;4413924;32;20503;-76
2021/04/13 01:19:59;;;;;;;8.57;1.12;;;3.70;99.90;;;;;;4413320;32;20082;-76
2021/04/13 01:22:33;;;;;;;1.45;1.02;;;3.80;99.90;;;;;;4413627;32;20073;-76
2021/04/13 01:25:02;;;;;;;16.17;1.30;;;3.80;99.90;;;;;;4413761;32;20070;-76
2021/04/13 01:27:28;;;;;;;0.40;0.40;;;3.90;99.90;;;;;;4413354;32;20061;-76
2021/04/13 01:29:56;;;;;;;0.32;0.32;;;3.80;99.90;;;;;;4413970;32;20054;-76
2021/04/13 01:32:23;;;;;;;0.35;0.35;;;3.80;99.90;;;;;;4413695;32;20069;-76
2021/04/13 01:34:58;;;;;;;10.60;1.55;;;3.70;99.90;;;;;;4413379;32;20070;-76
2021/04/13 01:37:36;;;;;;;0.37;0.37;;;3.70;99.90;;;;;;4413401;32;20066;-76
2021/04/13 01:40:17;;;;;;;0.30;0.30;;;3.70;99.90;;;;;;4413827;32;20087;-76
2021/04/13 01:42:44;;;;;;;0.50;0.50;;;3.70;99.90;;;;;;4413653;32;20081;-76
2021/04/13 01:45:12;;;;;;;0.40;0.40;;;3.70;99.90;;;;;;4413394;32;20081;-76
2021/04/13 01:47:39;;;;;;;13.52;1.05;;;3.60;99.90;;;;;;4413238;32;20149;-76
2021/04/13 01:50:12;;;;;;;0.40;0.40;;;3.70;99.90;;;;;;4414095;32;20109;-76
2021/04/13 01:52:42;;;;;;;0.50;0.50;;;3.70;99.90;;;;;;4412917;32;20086;-76
2021/04/13 01:55:14;;;;;;;0.50;0.50;;;3.60;99.90;;;;;;4413484;32;20155;-76
2021/04/13 01:58:19;;;;;;;0.40;0.40;;;3.40;99.90;;;;;;4414715;32;20069;-75
2021/04/13 02:00:57;;;;;;;0.55;0.55;;;3.40;99.90;;;;;;4396413;32;20061;-75
2021/04/13 02:03:31;;;;;;;0.40;0.40;;;3.30;99.90;;;;;;4416206;32;20514;-75
2021/04/13 02:06:03;;;;;;;0.40;0.40;;;3.20;99.90;;;;;;4415559;32;20466;-75
2021/04/13 02:08:39;;;;;;;0.30;0.30;;;3.30;99.90;;;;;;4416669;32;20585;-75
2021/04/13 02:11:10;;;;;;;0.35;0.35;;;3.40;99.90;;;;;;4425883;32;20069;-75
2021/04/13 02:13:45;;;;;;;7.12;1.00;;;3.40;99.90;;;;;;4431328;32;20541;-75
2021/04/13 02:16:21;;;;;;;0.40;0.40;;;3.30;99.90;;;;;;4431015;32;20621;-75
2021/04/13 02:18:49;;;;;;;1.50;1.40;;;3.40;99.90;;;;;;4431036;32;20074;-76
2021/04/13 02:21:20;;;;;;;1.55;0.65;;;3.40;99.90;;;;;;4432114;32;20062;-75
2021/04/13 02:23:52;;;;;;;0.30;0.30;;;3.40;99.90;;;;;;4430362;32;20081;-76
2021/04/13 02:26:18;;;;;;;0.35;0.35;;;3.40;99.90;;;;;;4430867;32;20066;-76
2021/04/13 02:28:45;;;;;;;0.40;0.40;;;3.30;99.90;;;;;;4430923;32;20146;-75
2021/04/13 02:31:15;;;;;;;0.40;0.40;;;3.30;99.90;;;;;;4430762;32;20089;-76
2021/04/13 02:33:45;;;;;;;0.40;0.40;;;3.30;99.90;;;;;;4430804;32;20081;-75
2021/04/13 02:36:16;;;;;;;0.30;0.30;;;3.30;99.90;;;;;;4430728;32;20058;-75
2021/04/13 02:38:48;;;;;;;0.40;0.40;;;3.30;99.90;;;;;;4430724;32;20071;-75
2021/04/13 02:41:22;;;;;;;1.08;0.93;;;3.30;99.90;;;;;;4430998;32;20073;-75
2021/04/13 02:43:51;;;;;;;0.35;0.35;;;3.20;99.90;;;;;;4431244;32;20580;-76
2021/04/13 02:46:22;;;;;;;0.68;0.68;;;3.20;99.90;;;;;;4430865;32;20058;-75
2021/04/13 02:49:12;;;;;;;0.60;0.60;;;3.20;99.90;;;;;;4431005;32;20074;-75
2021/04/13 02:51:44;;;;;;;0.30;0.30;;;3.10;99.90;;;;;;4430733;32;20074;-75
2021/04/13 02:54:17;;;;;;;0.50;0.50;;;3.10;99.90;;;;;;4430249;32;20070;-75
2021/04/13 02:56:48;;;;;;;0.30;0.30;;;3.00;99.90;;;;;;4430921;32;20058;-76
2021/04/13 02:59:17;;;;;;;0.30;0.30;;;3.00;99.90;;;;;;4430950;32;20167;-75
2021/04/13 03:02:03;;;;;;;0.90;0.68;;;3.00;99.90;;;;;;4430052;32;20069;-75
2021/04/13 03:04:30;;;;;;;0.50;0.50;;;3.00;99.90;;;;;;4419506;32;20135;-75
2021/04/13 03:06:58;;;;;;;0.50;0.50;;;3.00;99.90;;;;;;4429695;32;20130;-75
2021/04/13 03:09:27;;;;;;;0.82;0.82;;;3.00;99.90;;;;;;4429027;32;20066;-75
2021/04/13 03:11:56;;;;;;;0.40;0.40;;;3.00;99.90;;;;;;4430110;32;20072;-75
2021/04/13 03:14:23;;;;;;;0.60;0.60;;;3.00;99.90;;;;;;4430900;32;20066;-75
2021/04/13 03:16:51;;;;;;;0.30;0.30;;;3.00;99.90;;;;;;4430556;32;20081;-76
2021/04/13 03:19:21;;;;;;;0.50;0.50;;;2.90;99.90;;;;;;4430246;32;20089;-75
2021/04/13 03:21:50;;;;;;;0.35;0.35;;;2.90;99.90;;;;;;4431230;32;20065;-75
2021/04/13 03:24:22;;;;;;;0.40;0.40;;;2.80;99.90;;;;;;4430032;32;20062;-76
2021/04/13 03:26:51;;;;;;;0.57;0.57;;;2.80;99.90;;;;;;4430452;32;20085;-76
2021/04/13 03:29:24;;;;;;;0.57;0.55;;;2.80;99.90;;;;;;4430710;32;20120;-75
2021/04/13 03:31:52;;;;;;;0.40;0.40;;;2.80;99.90;;;;;;4430967;32;20069;-75
2021/04/13 03:34:18;;;;;;;0.30;0.30;;;2.70;99.90;;;;;;4429493;32;20494;-75
2021/04/13 03:36:46;;;;;;;0.30;0.30;;;2.60;99.90;;;;;;4430667;32;20573;-75
2021/04/13 03:39:16;;;;;;;0.50;0.50;;;2.60;99.90;;;;;;4431668;32;20438;-75
2021/04/13 03:41:45;;;;;;;0.63;0.63;;;2.50;99.90;;;;;;4431530;32;20062;-75
2021/04/13 03:44:14;;;;;;;0.47;0.47;;;2.50;99.90;;;;;;4430926;32;20397;-75
2021/04/13 03:46:40;;;;;;;0.50;0.50;;;2.50;99.90;;;;;;4429243;32;20127;-76
2021/04/13 03:49:10;;;;;;;0.40;0.40;;;2.60;99.90;;;;;;4429826;32;20066;-75
2021/04/13 03:51:44;;;;;;;0.45;0.45;;;2.70;99.90;;;;;;4430638;32;20108;-76
2021/04/13 03:54:30;;;;;;;0.70;0.70;;;2.70;99.90;;;;;;4428940;32;20062;-75
2021/04/13 03:56:56;;;;;;;0.40;0.40;;;2.70;99.90;;;;;;4430537;32;20057;-75
2021/04/13 03:59:26;;;;;;;0.57;0.57;;;2.70;99.90;;;;;;4430422;32;20065;-75
2021/04/13 04:01:52;;;;;;;6.22;1.40;;;2.60;99.90;;;;;;4430177;32;20054;-75
2021/04/13 04:04:36;;;;;;;0.75;0.75;;;2.50;99.90;;;;;;4429600;32;20125;-75
2021/04/13 04:07:28;;;;;;;0.80;0.60;;;2.60;99.90;;;;;;4429947;32;20531;-75
2021/04/13 04:09:53;;;;;;;0.30;0.30;;;2.50;99.90;;;;;;4419130;32;20057;-76
2021/04/13 04:12:23;;;;;;;0.30;0.30;;;2.50;99.90;;;;;;4430702;32;20115;-75
2021/04/13 04:14:59;;;;;;;0.93;0.73;;;2.60;99.90;;;;;;4429812;32;20070;-75
2021/04/13 04:17:27;;;;;;;0.30;0.30;;;2.50;99.90;;;;;;4429944;32;20134;-75
2021/04/13 04:19:55;;;;;;;0.40;0.40;;;2.50;99.90;;;;;;4429309;32;20069;-75
2021/04/13 04:22:22;;;;;;;0.30;0.30;;;2.50;99.90;;;;;;4419021;32;20500;-75
2021/04/13 04:24:47;;;;;;;0.30;0.30;;;2.50;99.90;;;;;;4426911;32;20057;-75
2021/04/13 04:27:16;;;;;;;0.30;0.30;;;2.40;99.90;;;;;;4427575;32;20503;-76
2021/04/13 04:29:44;;;;;;;0.50;0.50;;;2.40;99.90;;;;;;4415518;32;20068;-75
2021/04/13 04:32:14;;;;;;;3.97;1.67;;;2.30;99.90;;;;;;4430250;32;20084;-75
2021/04/13 04:34:47;;;;;;;0.30;0.30;;;2.30;99.90;;;;;;4428876;32;20124;-75
2021/04/13 04:37:21;;;;;;;0.40;0.40;;;2.30;99.90;;;;;;4429537;32;20065;-76
2021/04/13 04:39:47;;;;;;;0.30;0.30;;;2.30;99.90;;;;;;4429765;32;20595;-76
2021/04/13 04:42:28;;;;;;;0.40;0.40;;;2.40;99.90;;;;;;4429876;32;20078;-75
2021/04/13 04:45:18;;;;;;;1.67;1.58;;;2.40;99.90;;;;;;4429746;32;20119;-75
2021/04/13 04:47:46;;;;;;;0.50;0.50;;;2.30;99.90;;;;;;4418441;32;20116;-76
2021/04/13 04:50:16;;;;;;;0.20;0.20;;;2.20;99.90;;;;;;4428879;32;20085;-76
2021/04/13 04:52:42;;;;;;;0.35;0.35;;;2.20;99.90;;;;;;4429292;32;20437;-75
2021/04/13 04:55:09;;;;;;;0.40;0.40;;;2.10;99.90;;;;;;4430373;32;20078;-75
2021/04/13 04:57:35;;;;;;;0.30;0.30;;;2.10;99.90;;;;;;4430430;32;20116;-76
2021/04/13 05:00:00;;;;;;;0.43;0.43;;;2.20;99.90;;;;;;4429569;32;20068;-76
2021/04/13 05:02:26;;;;;;;0.90;0.90;;;2.30;99.90;;;;;;4418047;32;20065;-75
2021/04/13 05:04:52;;;;;;;0.85;0.85;;;2.30;99.90;;;;;;4424584;32;20090;-76
2021/04/13 05:07:17;;;;;;;0.30;0.30;;;2.40;99.90;;;;;;4427452;32;20380;-75
2021/04/13 05:09:43;;;;;;;0.95;0.75;;;2.40;99.90;;;;;;4426072;32;20517;-76
2021/04/13 05:12:09;;;;;;;0.70;0.70;;;2.30;99.90;;;;;;4423289;32;20101;-75
2021/04/13 05:14:34;;;;;;;0.50;0.50;;;2.30;99.90;;;;;;4427677;32;20082;-75
2021/04/13 05:17:00;;;;;;;0.40;0.40;;;2.40;99.90;;;;;;4422912;32;20093;-76
2021/04/13 05:19:26;;;;;;;0.30;0.30;;;2.30;99.90;;;;;;4415322;32;20423;-75
2021/04/13 05:21:51;;;;;;;0.50;0.50;;;2.30;99.90;;;;;;4425695;32;20074;-75
2021/04/13 05:24:17;;;;;;;0.40;0.40;;;2.30;99.90;;;;;;4425542;32;20537;-75
2021/04/13 05:26:43;;;;;;;1.60;0.88;;;2.40;99.90;;;;;;4416558;32;20136;-75
2021/04/13 05:29:08;;;;;;;0.40;0.40;;;2.40;99.90;;;;;;4412942;32;20552;-75
2021/04/13 05:31:38;;;;;;;0.40;0.40;;;2.50;99.90;;;;;;4402936;32;21378;-75
2021/04/13 05:34:04;;;;;;;0.47;0.47;;;2.50;99.90;;;;;;4413974;32;20085;-75
2021/04/13 05:36:31;;;;;;;0.70;0.70;;;2.50;99.90;;;;;;4420828;32;20095;-76
2021/04/13 05:38:58;;;;;;;0.62;0.62;;;2.60;99.90;;;;;;4418783;32;20066;-76
2021/04/13 05:41:26;;;;;;;0.28;0.28;;;2.70;99.90;;;;;;4428223;32;20096;-75
2021/04/13 05:43:52;;;;;;;2.17;0.88;;;2.80;99.90;;;;;;4424431;32;20144;-77
2021/04/13 05:46:22;;;;;;;0.60;0.60;;;2.90;99.90;;;;;;4425434;32;20073;-76
2021/04/13 05:48:48;;;;;;;2.00;1.08;;;3.00;99.90;;;;;;4427924;32;20546;-75
2021/04/13 05:51:13;;;;;;;1.48;0.57;;;3.00;99.90;;;;;;4426592;32;20069;-76
2021/04/13 05:53:40;;;;;;;3.10;0.60;;;3.10;99.90;;;;;;4429331;32;20127;-75
2021/04/13 05:56:06;;;;;;;0.60;0.60;;;3.20;99.90;;;;;;4427342;32;20069;-74
2021/04/13 05:58:42;;;;;;;0.62;0.62;;;3.20;99.90;;;;;;4423778;32;20230;-75
2021/04/13 06:01:09;;;;;;;0.50;0.40;;;3.30;99.90;;;;;;4424182;32;20120;-75
2021/04/13 06:03:35;;;;;;;0.43;0.43;;;3.40;99.90;;;;;;4423118;32;20101;-75
2021/04/13 06:06:01;;;;;;;0.50;0.50;;;3.50;99.90;;;;;;4421687;32;20530;-75
2021/04/13 06:08:26;;;;;;;0.70;0.70;;;3.50;99.90;;;;;;4428542;32;20120;-75
2021/04/13 06:10:53;;;;;;;0.50;0.50;;;3.60;99.90;;;;;;4428880;32;20368;-75
2021/04/13 06:13:21;;;;;;;0.40;0.40;;;3.60;99.90;;;;;;4428706;32;20080;-76
2021/04/13 06:15:46;;;;;;;0.30;0.30;;;3.70;99.90;;;;;;4432040;32;20107;-75
2021/04/13 06:18:11;;;;;;;0.40;0.40;;;3.80;99.90;;;;;;4425718;32;20411;-75
2021/04/13 06:20:37;;;;;;;0.45;0.45;;;3.80;99.90;;;;;;4428643;32;20065;-76
2021/04/13 06:23:04;;;;;;;0.68;0.68;;;3.90;99.90;;;;;;4423134;32;20065;-76
2021/04/13 06:25:32;;;;;;;0.30;0.30;;;3.90;99.90;;;;;;4426244;32;20475;-76
2021/04/13 06:27:59;;;;;;;0.30;0.30;;;3.90;99.90;;;;;;4426960;32;20065;-75
2021/04/13 06:30:26;;;;;;;0.57;0.57;;;3.90;99.90;;;;;;4411774;32;20112;-75
2021/04/13 06:32:52;;;;;;;0.50;0.50;;;3.90;99.90;;;;;;4425249;32;20064;-75
2021/04/13 06:35:20;;;;;;;0.40;0.40;;;4.00;99.90;;;;;;4425339;32;20065;-75
2021/04/13 06:37:47;;;;;;;0.40;0.40;;;4.10;99.90;;;;;;4428123;32;20086;-76
2021/04/13 06:40:43;;;;;;;0.60;0.60;;;4.00;99.90;;;;;;4429322;32;20153;-75
2021/04/13 06:43:33;;;;;;;0.30;0.30;;;4.10;99.90;;;;;;4416191;32;20077;-75
2021/04/13 06:46:10;;;;;;;0.55;0.55;;;4.20;99.90;;;;;;4415870;32;20135;-75
2021/04/13 06:48:47;;;;;;;0.40;0.40;;;4.30;99.90;;;;;;4408387;32;20299;-75
2021/04/13 06:51:27;;;;;;;0.40;0.40;;;4.40;99.90;;;;;;4425106;32;20069;-75
2021/04/13 06:54:03;;;;;;;18.25;4.78;;;4.50;99.90;;;;;;4418042;32;20197;-75
2021/04/13 06:56:44;;;;;;;0.52;0.52;;;4.50;99.90;;;;;;4426282;32;20093;-75
2021/04/13 06:59:31;;;;;;;0.50;0.50;;;4.50;99.90;;;;;;4424761;32;20089;-75
2021/04/13 07:02:00;;;;;;;0.98;0.75;;;4.60;99.90;;;;;;4413598;32;20478;-75
2021/04/13 07:04:50;;;;;;;0.30;0.30;;;4.60;99.90;;;;;;4427030;32;20502;-75
2021/04/13 07:07:37;;;;;;;0.40;0.40;;;4.60;99.90;;;;;;4400811;32;20116;-75
2021/04/13 07:10:23;;;;;;;0.35;0.35;;;4.50;99.90;;;;;;4424476;32;20065;-75
2021/04/13 07:13:01;;;;;;;0.30;0.30;;;4.60;99.90;;;;;;4412285;32;20069;-75
2021/04/13 07:15:46;;;;;;;0.90;0.82;;;4.60;99.90;;;;;;4423582;32;20120;-76
2021/04/13 07:18:38;;;;;;;11.18;3.58;;;4.80;99.90;;;;;;4420154;32;20089;-76
2021/04/13 07:21:12;;;;;;;0.77;0.77;;;4.80;99.90;;;;;;4409915;32;20548;-76
2021/04/13 07:23:43;;;;;;;0.77;0.77;;;5.10;99.90;;;;;;4421660;32;20058;-76
2021/04/13 07:26:35;;;;;;;0.40;0.40;;;5.30;99.90;;;;;;4417205;32;20373;-75
2021/04/13 07:29:11;;;;;;;2.72;0.60;;;5.20;99.90;;;;;;4411829;32;20070;-75
2021/04/13 07:31:49;;;;;;;0.40;0.40;;;5.20;99.90;;;;;;4421544;32;20696;-75
2021/04/13 07:34:14;;;;;;;0.40;0.40;;;5.40;99.90;;;;;;4417206;32;20098;-75
2021/04/13 07:36:46;;;;;;;0.43;0.43;;;5.50;99.90;;;;;;4419371;32;20537;-76
2021/04/13 07:39:13;;;;;;;0.77;0.52;;;5.60;99.90;;;;;;4419797;32;20333;-76
2021/04/13 07:41:46;;;;;;;0.57;0.57;;;5.70;99.90;;;;;;4421910;32;20442;-74
2021/04/13 07:44:17;;;;;;;0.43;0.43;;;5.80;99.90;;;;;;4426928;32;20065;-76
2021/04/13 07:46:55;;;;;;;10.75;2.85;;;5.70;99.90;;;;;;4420812;32;20727;-75
2021/04/13 07:49:50;;;;;;;0.40;0.40;;;5.80;99.90;;;;;;4419643;32;20090;-74
2021/04/13 07:52:38;;;;;;;0.43;0.43;;;6.20;99.90;;;;;;4409278;32;20522;-74
2021/04/13 07:55:26;;;;;;;0.50;0.50;;;6.20;99.90;;;;;;4407484;32;20183;-74
2021/04/13 07:58:31;;;;;;;0.30;0.30;;;6.30;99.90;;;;;;4415701;32;21085;-74
2021/04/13 08:00:58;;;;;;;0.30;0.30;;;6.30;99.90;;;;;;4401380;32;20072;-74
2021/04/13 08:03:31;;;;;;;0.50;0.50;;;6.10;99.90;;;;;;4420519;32;20113;-74
2021/04/13 08:06:00;;;;;;;0.35;0.35;;;6.20;99.90;;;;;;4423326;32;20073;-75
2021/04/13 08:08:44;;;;;;;16.15;0.82;;;6.10;99.90;;;;;;4419077;32;20090;-74
2021/04/13 08:11:17;;;;;;;0.85;0.82;;;6.00;99.90;;;;;;4419578;32;20081;-74
2021/04/13 08:13:47;;;;;;;0.30;0.30;;;5.90;99.90;;;;;;4421302;32;20065;-75
2021/04/13 08:16:34;;;;;;;0.43;0.43;;;5.90;99.90;;;;;;4419820;32;20500;-74
2021/04/13 08:19:31;;;;;;;1.15;1.05;;;6.10;99.90;;;;;;4408307;32;20097;-75
2021/04/13 08:22:01;;;;;;;0.30;0.30;;;6.30;99.90;;;;;;4419590;32;20184;-75
2021/04/13 08:24:45;;;;;;;0.70;0.62;;;6.40;99.90;;;;;;4420303;32;20088;-74
2021/04/13 08:27:35;;;;;;;0.60;0.50;;;6.60;99.90;;;;;;4419943;32;20112;-76
2021/04/13 08:30:45;;;;;;;0.40;0.40;;;6.40;99.90;;;;;;4405928;32;20240;-74
2021/04/13 08:33:36;;;;;;;0.35;0.35;;;6.10;99.90;;;;;;4402361;32;20104;-75
2021/04/13 08:36:26;;;;;;;4.07;0.88;;;6.30;99.90;;;;;;4407521;32;20381;-74
2021/04/13 08:39:03;;;;;;;0.60;0.60;;;6.20;99.90;;;;;;4405231;32;20491;-76
2021/04/13 08:41:33;;;;;;;0.40;0.40;;;6.40;99.90;;;;;;4414529;32;20073;-75
2021/04/13 08:44:20;;;;;;;0.50;0.50;;;6.60;99.90;;;;;;4404608;32;20062;-76
2021/04/13 08:47:00;;;;;;;0.40;0.40;;;6.90;99.90;;;;;;4402490;32;20508;-76
2021/04/13 08:49:49;;;;;;;0.35;0.35;;;7.20;99.90;;;;;;4422051;32;20135;-76
2021/04/13 08:52:28;;;;;;;0.30;0.30;;;7.30;99.90;;;;;;4413224;32;20124;-75
2021/04/13 08:55:08;;;;;;;0.40;0.40;;;7.20;99.90;;;;;;4421476;32;20432;-75
2021/04/13 08:57:37;;;;;;;0.30;0.30;;;7.10;99.90;;;;;;4422799;32;20467;-76
2021/04/13 09:00:30;;;;;;;1.17;0.60;;;7.20;99.90;;;;;;4421948;32;20066;-75
2021/04/13 09:02:59;;;;;;;0.30;0.30;;;7.30;99.90;;;;;;4411529;32;20085;-75
2021/04/13 09:05:28;;;;;;;0.50;0.50;;;7.00;99.90;;;;;;4418406;32;20093;-76
2021/04/13 09:08:03;;;;;;;0.30;0.30;;;7.10;99.90;;;;;;4423459;32;20470;-76
2021/04/13 09:10:34;;;;;;;0.30;0.30;;;7.30;99.90;;;;;;4424807;32;20066;-76
2021/04/13 09:13:18;;;;;;;0.50;0.50;;;7.10;99.90;;;;;;4425687;32;20101;-76
2021/04/13 09:15:53;;;;;;;0.68;0.68;;;6.90;99.90;;;;;;4422479;32;20109;-76
2021/04/13 09:18:28;;;;;;;5.93;0.73;;;6.90;99.90;;;;;;4420113;32;20066;-76
2021/04/13 09:21:04;;;;;;;0.60;0.60;;;7.30;99.90;;;;;;4424277;32;20081;-76
2021/04/13 09:23:58;;;;;;;2.05;1.35;;;7.10;99.90;;;;;;4410958;32;20088;-76
2021/04/13 09:26:51;;;;;;;0.32;0.32;;;7.30;99.90;;;;;;4405797;32;20069;-76
2021/04/13 09:29:43;;;;;;;0.30;0.30;;;7.50;99.90;;;;;;4407478;32;20101;-76
2021/04/13 09:32:31;;;;;;;0.30;0.30;;;7.50;99.90;;;;;;4418199;32;20074;-76
2021/04/13 09:35:25;;;;;;;0.30;0.30;;;7.80;99.90;;;;;;4405951;32;20576;-76
2021/04/13 09:38:30;;;;;;;1.25;1.15;;;8.00;99.90;;;;;;4411839;32;20046;-76
2021/04/13 09:41:31;;;;;;;4.72;1.70;;;8.10;99.90;;;;;;4407463;32;89318;-77
2021/04/13 09:44:32;;;;;;;3.65;1.65;;;8.10;99.90;;;;;;4413276;32;20069;-76
2021/04/13 09:47:01;;;;;;;0.40;0.40;;;7.80;99.90;;;;;;4420615;32;20074;-76
2021/04/13 09:49:52;;;;;;;2.47;0.47;;;8.00;99.90;;;;;;4424134;32;20077;-77
2021/04/13 09:52:45;;;;;;;0.30;0.30;;;8.00;99.90;;;;;;4414162;32;20125;-76
2021/04/13 09:55:32;;;;;;;0.30;0.30;;;8.30;99.90;;;;;;4412789;32;20097;-75
2021/04/13 09:58:23;;;;;;;0.37;0.37;;;8.20;99.90;;;;;;4422615;32;20066;-77
2021/04/13 10:00:57;;;;;;;0.40;0.40;;;8.00;99.90;;;;;;4418682;32;20499;-77
2021/04/13 10:03:54;;;;;;;4.03;0.88;;;7.80;99.90;;;;;;4423081;32;20111;-76
2021/04/13 10:06:31;;;;;;;0.90;0.68;;;7.70;99.90;;;;;;4410975;32;20085;-76
2021/04/13 10:09:04;;;;;;;0.45;0.45;;;7.90;99.90;;;;;;4422091;32;20096;-76
2021/04/13 10:12:08;;;;;;;0.50;0.50;;;8.00;99.90;;;;;;4421765;32;20077;-76
2021/04/13 10:15:07;;;;;;;0.40;0.40;;;8.40;99.90;;;;;;4411456;32;20108;-76
2021/04/13 10:17:54;;;;;;;0.40;0.40;;;9.10;99.90;;;;;;4410000;32;20102;-76
2021/04/13 10:20:36;;;;;;;0.50;0.50;;;9.10;99.90;;;;;;4410472;32;20074;-76
2021/04/13 10:23:32;;;;;;;0.30;0.30;;;9.00;99.90;;;;;;4424868;32;20069;-77
2021/04/13 10:26:19;;;;;;;0.60;0.60;;;9.00;99.90;;;;;;4428589;32;20081;-77
2021/04/13 10:29:09;;;;;;;1.65;0.73;;;8.80;99.90;;;;;;4421434;32;20089;-77
2021/04/13 10:32:14;;;;;;;1.20;0.52;;;8.40;99.90;;;;;;4435152;32;20069;-75
2021/04/13 10:34:58;;;;;;;0.30;0.30;;;8.50;99.90;;;;;;4401123;32;20676;-76
2021/04/13 10:38:02;;;;;;;1.67;0.68;;;9.00;99.90;;;;;;4419787;32;20156;-77
2021/04/13 10:40:43;;;;;;;0.40;0.40;;;9.20;99.90;;;;;;4417587;32;20232;-75
2021/04/13 10:43:48;;;;;;;0.55;0.55;;;8.90;99.90;;;;;;4432397;32;20740;-76
2021/04/13 10:46:30;;;;;;;7.68;0.80;;;9.00;99.90;;;;;;4403006;32;20085;-77
2021/04/13 10:49:21;;;;;;;1.80;0.70;;;9.20;99.90;;;;;;4429901;32;20081;-76
2021/04/13 10:52:26;;;;;;;0.30;0.30;;;9.30;99.90;;;;;;4422048;32;20626;-75
2021/04/13 10:55:02;;;;;;;0.77;0.45;;;9.20;99.90;;;;;;4408507;32;20082;-76
2021/04/13 10:58:08;;;;;;;0.47;0.47;;;9.20;99.90;;;;;;4424664;32;20097;-77
2021/04/13 11:00:57;;;;;;;0.35;0.35;;;9.50;99.90;;;;;;4406095;32;20399;-76
2021/04/13 11:03:57;;;;;;;1.55;0.90;;;10.00;99.90;;;;;;4415623;32;20081;-76
2021/04/13 11:06:44;;;;;;;0.30;0.30;;;10.00;99.90;;;;;;4413873;32;20510;-76
2021/04/13 11:09:49;;;;;;;0.40;0.40;;;9.50;99.90;;;;;;4413156;32;20070;-76
2021/04/13 11:12:37;;;;;;;0.40;0.40;;;9.30;99.90;;;;;;4414179;32;20136;-75
2021/04/13 11:15:36;;;;;;;0.60;0.60;;;9.20;99.90;;;;;;4413189;32;20066;-77
2021/04/13 11:18:11;;;;;;;0.50;0.50;;;8.90;99.90;;;;;;4418422;32;20601;-76
2021/04/13 11:21:17;;;;;;;0.50;0.50;;;8.80;99.90;;;;;;4436482;32;20086;-77
2021/04/13 11:24:13;;;;;;;0.40;0.40;;;8.80;99.90;;;;;;4409010;32;20414;-77
2021/04/13 11:27:11;;;;;;;0.40;0.40;;;9.40;99.90;;;;;;4420047;32;20070;-76
2021/04/13 11:30:00;;;;;;;0.30;0.30;;;9.30;99.90;;;;;;4410910;32;20069;-78
2021/04/13 11:33:03;;;;;;;0.30;0.30;;;9.00;99.90;;;;;;4419483;32;20050;-77
2021/04/13 11:36:04;;;;;;;5.72;0.50;;;8.90;99.90;;;;;;4416356;32;20189;-76
2021/04/13 11:38:40;;;;;;;3.33;1.17;;;9.00;99.90;;;;;;4427567;32;20526;-77
2021/04/13 11:41:45;;;;;;;0.30;0.30;;;9.10;99.90;;;;;;4427418;32;20069;-77
2021/04/13 11:44:42;;;;;;;0.88;0.65;;;9.10;99.90;;;;;;4418765;32;20068;-77
2021/04/13 11:47:18;;;;;;;0.22;0.22;;;9.40;99.90;;;;;;4409026;32;20449;-77
2021/04/13 11:49:57;;;;;;;0.47;0.47;;;9.20;99.90;;;;;;4422807;32;20156;-76
2021/04/13 11:52:43;;;;;;;3.20;1.58;;;9.20;99.90;;;;;;4424712;32;20090;-78
2021/04/13 11:55:30;;;;;;;1.55;0.82;;;9.30;99.90;;;;;;4426731;32;20125;-77
2021/04/13 11:58:20;;;;;;;0.30;0.30;;;9.60;99.90;;;;;;4415103;32;20093;-76
2021/04/13 12:00:47;;;;;;;0.30;0.30;;;9.70;99.90;;;;;;4433545;32;20069;-77
2021/04/13 12:03:32;;;;;;;0.40;0.40;;;9.80;99.90;;;;;;4429196;32;20069;-77
2021/04/13 12:06:13;;;;;;;0.57;0.30;;;9.70;99.90;;;;;;4428452;32;20152;-77
2021/04/13 12:08:43;;;;;;;1.20;1.12;;;9.50;99.90;;;;;;4430181;32;20073;-77
2021/04/13 12:11:13;;;;;;;0.40;0.40;;;9.40;99.90;;;;;;4427873;32;20437;-76
2021/04/13 12:13:49;;;;;;;1.50;0.70;;;9.30;99.90;;;;;;4429496;32;20068;-76
2021/04/13 12:16:18;;;;;;;8.30;0.50;;;9.30;99.90;;;;;;4435826;32;20517;-76
2021/04/13 12:19:05;;;;;;;1.48;0.60;;;9.30;99.90;;;;;;4428260;32;20120;-76
2021/04/13 12:21:37;;;;;;;1.65;1.05;;;9.20;99.90;;;;;;4416154;32;20086;-77
2021/04/13 12:24:19;;;;;;;0.35;0.35;;;9.20;99.90;;;;;;4424131;32;20510;-77
2021/04/13 12:26:46;;;;;;;0.30;0.30;;;9.20;99.90;;;;;;4425656;32;20089;-77
2021/04/13 12:29:32;;;;;;;0.45;0.45;;;9.30;99.90;;;;;;4433331;32;20116;-76
2021/04/13 12:32:17;;;;;;;0.73;0.55;;;9.30;99.90;;;;;;4433777;32;20155;-77
2021/04/13 12:34:49;;;;;;;0.60;0.60;;;9.40;99.90;;;;;;4429767;32;20069;-78
2021/04/13 12:37:35;;;;;;;0.45;0.45;;;9.40;99.90;;;;;;4432179;32;20065;-76
2021/04/13 12:40:22;;;;;;;0.30;0.30;;;9.40;99.90;;;;;;4433854;32;20119;-75
2021/04/13 12:42:52;;;;;;;0.40;0.40;;;9.60;99.90;;;;;;4416534;32;20165;-76
2021/04/13 12:45:21;;;;;;;0.57;0.57;;;9.50;99.90;;;;;;4430664;32;20061;-76
2021/04/13 12:48:08;;;;;;;0.40;0.40;;;9.60;99.90;;;;;;4420652;32;20062;-77
2021/04/13 12:50:39;;;;;;;0.40;0.40;;;10.00;99.90;;;;;;4414137;32;20669;-77
2021/04/13 12:53:12;;;;;;;0.40;0.40;;;10.20;99.90;;;;;;4420711;32;20118;-77
2021/04/13 12:55:38;;;;;;;2.35;0.88;;;10.30;99.80;;;;;;4430679;32;20408;-76
2021/04/13 12:58:12;;;;;;;0.32;0.32;;;10.30;99.40;;;;;;4430751;32;20061;-77
2021/04/13 13:00:43;;;;;;;0.30;0.30;;;10.40;98.90;;;;;;4429592;32;20126;-77
2021/04/13 13:03:28;;;;;;;;;;;10.40;98.80;;;;;;4427282;32;20118;-77
2021/04/13 13:05:54;;;;;;;0.40;0.40;;;10.30;98.70;;;;;;4408119;32;20001;-77
2021/04/13 13:08:27;;;;;;;0.30;0.30;;;10.70;99.00;;;;;;4428101;32;20509;-77
2021/04/13 13:10:55;;;;;;;0.30;0.30;;;11.90;96.40;;;;;;4425516;32;20419;-77
2021/04/13 13:13:28;;;;;;;0.30;0.30;;;12.30;94.90;;;;;;4424052;32;20069;-76
2021/04/13 13:15:54;;;;;;;0.35;0.35;;;12.40;95.20;;;;;;4431133;32;20518;-77
2021/04/13 13:18:25;;;;;;;0.30;0.30;;;12.30;94.20;;;;;;4425707;32;20081;-77
2021/04/13 13:21:02;;;;;;;0.40;0.40;;;11.60;95.20;;;;;;4439084;32;20085;-77
2021/04/13 13:23:31;;;;;;;0.40;0.40;;;11.10;94.70;;;;;;4426573;32;20074;-77
2021/04/13 13:26:25;;;;;;;0.30;0.30;;;10.60;95.30;;;;;;4429103;32;20405;-76
2021/04/13 13:28:53;;;;;;;0.50;0.50;;;10.40;96.30;;;;;;4430343;32;20089;-77
2021/04/13 13:31:25;;;;;;;0.28;0.28;;;11.00;97.20;;;;;;4428898;32;20082;-77
2021/04/13 13:33:56;;;;;;;0.40;0.40;;;12.00;95.40;;;;;;4419546;32;20079;-76
2021/04/13 13:36:22;;;;;;;0.30;0.30;;;12.80;93.70;;;;;;4426580;32;20069;-76
2021/04/13 13:38:49;;;;;;;0.47;0.45;;;13.80;91.80;;;;;;4420131;32;20081;-76
2021/04/13 13:41:23;;;;;;;11.43;0.95;;;14.20;90.40;;;;;;4427445;32;20066;-77
2021/04/13 13:43:49;;;;;;;0.30;0.30;;;14.60;88.00;;;;;;4421499;32;20081;-77